sensor_id;sensor_type;location;lat;lon;timestamp;P1;durP1;ratioP1;P2;durP2;ratioP2
43042;SDS011;28667;50.758;6.096;2022-08-11T10:28:08;1.55;;;1.38;;
43042;SDS011;28667;50.758;6.096;2022-08-11T10:30:35;1.90;;;1.25;;
43042;SDS011;28667;50.758;6.096;2022-08-11T10:33:21;1.63;;;1.40;;
43042;SDS011;28667;50.758;6.096;2022-08-11T10:38:32;0.80;;;0.73;;
43042;SDS011;28667;50.758;6.096;2022-08-11T10:40:59;1.50;;;1.40;;
43042;SDS011;28667;50.758;6.096;2022-08-11T10:43:45;1.23;;;1.23;;
43042;SDS011;28667;50.758;6.096;2022-08-11T10:46:12;1.88;;;1.50;;
43042;SDS011;28667;50.758;6.096;2022-08-11T10:48:56;3.40;;;1.23;;
43042;SDS011;28667;50.758;6.096;2022-08-11T10:51:24;0.95;;;0.95;;
43042;SDS011;28667;50.758;6.096;2022-08-11T10:54:11;1.60;;;1.50;;
43042;SDS011;28667;50.758;6.096;2022-08-11T10:56:57;1.00;;;1.00;;
43042;SDS011;28667;50.758;6.096;2022-08-11T10:59:44;1.55;;;1.45;;
43042;SDS011;28667;50.758;6.096;2022-08-11T11:02:12;3.42;;;1.40;;
43042;SDS011;28667;50.758;6.096;2022-08-11T11:07:20;3.53;;;1.48;;
43042;SDS011;28667;50.758;6.096;2022-08-11T11:09:50;1.25;;;1.15;;
43042;SDS011;28667;50.758;6.096;2022-08-11T11:12:23;1.80;;;1.70;;
43042;SDS011;28667;50.758;6.096;2022-08-11T11:15:15;1.55;;;1.45;;
43042;SDS011;28667;50.758;6.096;2022-08-11T11:18:06;1.08;;;0.95;;
43042;SDS011;28667;50.758;6.096;2022-08-11T11:20:42;2.47;;;1.45;;
43042;SDS011;28667;50.758;6.096;2022-08-11T11:37:08;1.63;;;1.52;;
43042;SDS011;28667;50.758;6.096;2022-08-11T11:39:40;1.98;;;1.55;;
43042;SDS011;28667;50.758;6.096;2022-08-11T11:42:08;1.45;;;1.35;;
43042;SDS011;28667;50.758;6.096;2022-08-11T11:44:38;4.57;;;1.30;;
43042;SDS011;28667;50.758;6.096;2022-08-11T11:47:07;1.77;;;1.17;;
43042;SDS011;28667;50.758;6.096;2022-08-11T11:49:37;1.70;;;1.30;;
43042;SDS011;28667;50.758;6.096;2022-08-11T11:52:07;1.40;;;1.30;;
43042;SDS011;28667;50.758;6.096;2022-08-11T11:54:44;1.35;;;1.15;;
43042;SDS011;28667;50.758;6.096;2022-08-11T11:57:18;3.45;;;1.65;;
43042;SDS011;28667;50.758;6.096;2022-08-11T12:00:04;1.10;;;1.00;;
43042;SDS011;28667;50.758;6.096;2022-08-11T12:02:52;2.25;;;1.38;;
43042;SDS011;28667;50.758;6.096;2022-08-11T12:05:20;1.63;;;1.40;;
43042;SDS011;28667;50.758;6.096;2022-08-11T12:07:50;1.23;;;1.23;;
43042;SDS011;28667;50.758;6.096;2022-08-11T12:10:36;1.40;;;1.30;;
43042;SDS011;28667;50.758;6.096;2022-08-11T12:13:03;1.70;;;1.27;;
43042;SDS011;28667;50.758;6.096;2022-08-11T12:15:49;2.17;;;1.30;;
43042;SDS011;28667;50.758;6.096;2022-08-11T12:18:17;2.45;;;1.13;;
43042;SDS011;28667;50.758;6.096;2022-08-11T12:20:44;1.60;;;1.30;;
43042;SDS011;28667;50.758;6.096;2022-08-11T12:23:11;1.33;;;1.15;;
43042;SDS011;28667;50.758;6.096;2022-08-11T12:25:57;4.57;;;1.60;;
43042;SDS011;28667;50.758;6.096;2022-08-11T12:28:48;0.90;;;0.90;;
43042;SDS011;28667;50.758;6.096;2022-08-11T12:31:14;2.65;;;1.30;;
43042;SDS011;28667;50.758;6.096;2022-08-11T12:33:41;1.67;;;1.50;;
43042;SDS011;28667;50.758;6.096;2022-08-11T12:36:08;5.75;;;1.48;;
43042;SDS011;28667;50.758;6.096;2022-08-11T12:38:41;1.20;;;0.82;;
43042;SDS011;28667;50.758;6.096;2022-08-11T12:41:11;2.05;;;1.40;;
43042;SDS011;28667;50.758;6.096;2022-08-11T12:43:56;1.27;;;1.17;;
43042;SDS011;28667;50.758;6.096;2022-08-11T12:46:44;2.42;;;1.55;;
43042;SDS011;28667;50.758;6.096;2022-08-11T12:49:12;1.63;;;1.52;;
43042;SDS011;28667;50.758;6.096;2022-08-11T12:52:03;2.50;;;1.30;;
43042;SDS011;28667;50.758;6.096;2022-08-11T12:57:30;1.60;;;1.23;;
43042;SDS011;28667;50.758;6.096;2022-08-11T13:00:30;2.03;;;1.47;;
43042;SDS011;28667;50.758;6.096;2022-08-11T13:03:17;2.40;;;1.27;;
43042;SDS011;28667;50.758;6.096;2022-08-11T13:06:03;1.33;;;1.13;;
43042;SDS011;28667;50.758;6.096;2022-08-11T13:08:32;2.22;;;1.58;;
43042;SDS011;28667;50.758;6.096;2022-08-11T13:11:01;2.28;;;1.35;;
43042;SDS011;28667;50.758;6.096;2022-08-11T13:13:47;3.28;;;1.40;;
43042;SDS011;28667;50.758;6.096;2022-08-11T13:16:15;2.70;;;1.60;;
43042;SDS011;28667;50.758;6.096;2022-08-11T13:18:42;1.95;;;1.52;;
43042;SDS011;28667;50.758;6.096;2022-08-11T13:21:09;1.50;;;1.40;;
43042;SDS011;28667;50.758;6.096;2022-08-11T13:23:37;1.65;;;1.55;;
43042;SDS011;28667;50.758;6.096;2022-08-11T13:26:05;2.85;;;1.42;;
43042;SDS011;28667;50.758;6.096;2022-08-11T13:28:35;1.67;;;1.55;;
43042;SDS011;28667;50.758;6.096;2022-08-11T13:31:03;1.50;;;1.38;;
43042;SDS011;28667;50.758;6.096;2022-08-11T13:33:48;1.50;;;1.33;;
43042;SDS011;28667;50.758;6.096;2022-08-11T13:36:20;2.85;;;1.20;;
43042;SDS011;28667;50.758;6.096;2022-08-11T13:38:49;1.45;;;1.35;;
43042;SDS011;28667;50.758;6.096;2022-08-11T13:41:16;1.75;;;1.45;;
43042;SDS011;28667;50.758;6.096;2022-08-11T13:44:01;1.80;;;1.30;;
43042;SDS011;28667;50.758;6.096;2022-08-11T13:46:28;1.77;;;1.67;;
43042;SDS011;28667;50.758;6.096;2022-08-11T13:48:55;2.58;;;1.60;;
43042;SDS011;28667;50.758;6.096;2022-08-11T13:51:23;1.30;;;1.20;;
43042;SDS011;28667;50.758;6.096;2022-08-11T13:56:41;3.42;;;1.58;;
43042;SDS011;28667;50.758;6.096;2022-08-11T13:59:10;1.65;;;1.38;;
43042;SDS011;28667;50.758;6.096;2022-08-11T14:01:40;2.55;;;1.63;;
43042;SDS011;28667;50.758;6.096;2022-08-11T14:04:09;2.05;;;1.70;;
43042;SDS011;28667;50.758;6.096;2022-08-11T14:06:50;2.05;;;1.48;;
43042;SDS011;28667;50.758;6.096;2022-08-11T14:09:21;1.50;;;1.40;;
43042;SDS011;28667;50.758;6.096;2022-08-11T14:11:51;3.17;;;1.65;;
43042;SDS011;28667;50.758;6.096;2022-08-11T14:14:40;3.40;;;1.55;;
43042;SDS011;28667;50.758;6.096;2022-08-11T14:17:11;1.52;;;1.10;;
43042;SDS011;28667;50.758;6.096;2022-08-11T14:19:41;4.53;;;1.30;;
43042;SDS011;28667;50.758;6.096;2022-08-11T14:22:11;2.15;;;1.50;;
43042;SDS011;28667;50.758;6.096;2022-08-11T14:24:40;1.50;;;1.40;;
43042;SDS011;28667;50.758;6.096;2022-08-11T14:27:10;1.63;;;1.52;;
43042;SDS011;28667;50.758;6.096;2022-08-11T14:29:37;1.65;;;1.55;;
43042;SDS011;28667;50.758;6.096;2022-08-11T14:32:06;2.42;;;1.50;;
43042;SDS011;28667;50.758;6.096;2022-08-11T14:34:35;2.78;;;1.60;;
43042;SDS011;28667;50.758;6.096;2022-08-11T14:37:25;1.50;;;1.40;;
43042;SDS011;28667;50.758;6.096;2022-08-11T14:39:52;5.28;;;1.60;;
43042;SDS011;28667;50.758;6.096;2022-08-11T14:42:22;2.17;;;1.50;;
43042;SDS011;28667;50.758;6.096;2022-08-11T14:45:08;2.33;;;1.48;;
43042;SDS011;28667;50.758;6.096;2022-08-11T14:47:56;1.65;;;1.55;;
43042;SDS011;28667;50.758;6.096;2022-08-11T14:50:26;2.92;;;1.33;;
43042;SDS011;28667;50.758;6.096;2022-08-11T14:52:55;1.52;;;1.20;;
43042;SDS011;28667;50.758;6.096;2022-08-11T14:55:26;2.45;;;1.83;;
43042;SDS011;28667;50.758;6.096;2022-08-11T14:58:14;1.70;;;1.60;;
43042;SDS011;28667;50.758;6.096;2022-08-11T15:00:42;2.20;;;1.40;;
43042;SDS011;28667;50.758;6.096;2022-08-11T15:03:11;2.25;;;1.50;;
43042;SDS011;28667;50.758;6.096;2022-08-11T15:05:50;1.88;;;1.40;;
43042;SDS011;28667;50.758;6.096;2022-08-11T15:08:19;2.47;;;1.58;;
43042;SDS011;28667;50.758;6.096;2022-08-11T15:11:06;1.92;;;1.73;;
43042;SDS011;28667;50.758;6.096;2022-08-11T15:13:55;1.60;;;1.50;;
43042;SDS011;28667;50.758;6.096;2022-08-11T15:16:23;1.63;;;1.50;;
43042;SDS011;28667;50.758;6.096;2022-08-11T15:19:10;2.00;;;1.83;;
43042;SDS011;28667;50.758;6.096;2022-08-11T15:21:37;1.75;;;1.65;;
43042;SDS011;28667;50.758;6.096;2022-08-11T15:24:22;1.90;;;1.63;;
43042;SDS011;28667;50.758;6.096;2022-08-11T15:26:48;1.70;;;1.60;;
43042;SDS011;28667;50.758;6.096;2022-08-11T15:29:35;3.53;;;1.70;;
43042;SDS011;28667;50.758;6.096;2022-08-11T15:32:38;1.90;;;1.75;;
43042;SDS011;28667;50.758;6.096;2022-08-11T15:35:26;1.73;;;1.63;;
43042;SDS011;28667;50.758;6.096;2022-08-11T15:38:11;3.55;;;1.60;;
43042;SDS011;28667;50.758;6.096;2022-08-11T15:40:39;1.95;;;1.80;;
43042;SDS011;28667;50.758;6.096;2022-08-11T15:43:37;1.70;;;1.60;;
43042;SDS011;28667;50.758;6.096;2022-08-11T15:46:29;3.80;;;1.85;;
43042;SDS011;28667;50.758;6.096;2022-08-11T15:49:03;4.57;;;1.70;;
43042;SDS011;28667;50.758;6.096;2022-08-11T15:52:17;1.58;;;1.48;;
43042;SDS011;28667;50.758;6.096;2022-08-11T15:55:12;2.75;;;1.65;;
43042;SDS011;28667;50.758;6.096;2022-08-11T15:58:10;1.77;;;1.65;;
43042;SDS011;28667;50.758;6.096;2022-08-11T16:01:27;3.38;;;1.73;;
43042;SDS011;28667;50.758;6.096;2022-08-11T16:04:30;1.92;;;1.70;;
43042;SDS011;28667;50.758;6.096;2022-08-11T16:07:04;3.17;;;1.65;;
43042;SDS011;28667;50.758;6.096;2022-08-11T16:09:39;1.80;;;1.70;;
43042;SDS011;28667;50.758;6.096;2022-08-11T16:12:10;2.85;;;1.60;;
43042;SDS011;28667;50.758;6.096;2022-08-11T16:14:42;3.38;;;1.75;;
43042;SDS011;28667;50.758;6.096;2022-08-11T16:17:33;1.30;;;1.20;;
43042;SDS011;28667;50.758;6.096;2022-08-11T16:20:03;1.35;;;1.25;;
43042;SDS011;28667;50.758;6.096;2022-08-11T16:22:32;1.33;;;1.23;;
43042;SDS011;28667;50.758;6.096;2022-08-11T16:25:13;1.85;;;1.40;;
43042;SDS011;28667;50.758;6.096;2022-08-11T16:27:44;2.40;;;1.70;;
43042;SDS011;28667;50.758;6.096;2022-08-11T16:30:12;3.20;;;1.70;;
43042;SDS011;28667;50.758;6.096;2022-08-11T16:32:45;1.92;;;1.70;;
43042;SDS011;28667;50.758;6.096;2022-08-11T16:35:18;1.60;;;1.50;;
43042;SDS011;28667;50.758;6.096;2022-08-11T16:38:07;1.98;;;1.73;;
43042;SDS011;28667;50.758;6.096;2022-08-11T16:40:53;1.83;;;1.60;;
43042;SDS011;28667;50.758;6.096;2022-08-11T16:43:21;2.10;;;1.73;;
43042;SDS011;28667;50.758;6.096;2022-08-11T16:46:08;1.30;;;1.20;;
43042;SDS011;28667;50.758;6.096;2022-08-11T16:48:56;1.70;;;1.45;;
43042;SDS011;28667;50.758;6.096;2022-08-11T16:51:25;2.67;;;1.52;;
43042;SDS011;28667;50.758;6.096;2022-08-11T16:53:51;1.70;;;1.60;;
43042;SDS011;28667;50.758;6.096;2022-08-11T16:56:19;2.70;;;1.60;;
43042;SDS011;28667;50.758;6.096;2022-08-11T16:58:49;1.50;;;1.40;;
43042;SDS011;28667;50.758;6.096;2022-08-11T17:01:37;2.47;;;1.60;;
43042;SDS011;28667;50.758;6.096;2022-08-11T17:07:15;1.27;;;1.17;;
43042;SDS011;28667;50.758;6.096;2022-08-11T17:10:04;1.70;;;1.60;;
43042;SDS011;28667;50.758;6.096;2022-08-11T17:12:50;1.98;;;1.40;;
43042;SDS011;28667;50.758;6.096;2022-08-11T17:15:41;2.63;;;1.63;;
43042;SDS011;28667;50.758;6.096;2022-08-11T17:18:31;3.17;;;1.83;;
43042;SDS011;28667;50.758;6.096;2022-08-11T17:21:29;1.90;;;1.80;;
43042;SDS011;28667;50.758;6.096;2022-08-11T17:24:00;1.70;;;1.60;;
43042;SDS011;28667;50.758;6.096;2022-08-11T17:26:36;1.60;;;1.50;;
43042;SDS011;28667;50.758;6.096;2022-08-11T17:29:23;2.60;;;1.80;;
43042;SDS011;28667;50.758;6.096;2022-08-11T17:31:53;2.13;;;1.52;;
43042;SDS011;28667;50.758;6.096;2022-08-11T17:34:41;2.42;;;1.80;;
43042;SDS011;28667;50.758;6.096;2022-08-11T17:37:27;2.05;;;1.60;;
43042;SDS011;28667;50.758;6.096;2022-08-11T17:39:57;1.58;;;1.48;;
43042;SDS011;28667;50.758;6.096;2022-08-11T17:42:27;3.17;;;1.42;;
43042;SDS011;28667;50.758;6.096;2022-08-11T17:45:19;2.15;;;1.95;;
43042;SDS011;28667;50.758;6.096;2022-08-11T17:48:05;2.20;;;2.00;;
43042;SDS011;28667;50.758;6.096;2022-08-11T17:50:51;2.33;;;1.85;;
43042;SDS011;28667;50.758;6.096;2022-08-11T17:56:13;1.50;;;1.40;;
43042;SDS011;28667;50.758;6.096;2022-08-11T17:58:59;3.28;;;1.65;;
43042;SDS011;28667;50.758;6.096;2022-08-11T18:01:46;1.52;;;1.42;;
43042;SDS011;28667;50.758;6.096;2022-08-11T18:04:14;2.00;;;1.80;;
43042;SDS011;28667;50.758;6.096;2022-08-11T18:06:42;1.60;;;1.50;;
43042;SDS011;28667;50.758;6.096;2022-08-11T18:09:15;1.50;;;1.40;;
43042;SDS011;28667;50.758;6.096;2022-08-11T18:12:03;2.45;;;1.63;;
43042;SDS011;28667;50.758;6.096;2022-08-11T18:14:50;1.45;;;1.35;;
43042;SDS011;28667;50.758;6.096;2022-08-11T18:17:38;3.15;;;1.83;;
43042;SDS011;28667;50.758;6.096;2022-08-11T18:20:24;4.70;;;1.83;;
43042;SDS011;28667;50.758;6.096;2022-08-11T18:23:12;1.40;;;1.30;;
43042;SDS011;28667;50.758;6.096;2022-08-11T18:26:01;2.55;;;1.58;;
43042;SDS011;28667;50.758;6.096;2022-08-11T18:28:49;1.58;;;1.38;;
43042;SDS011;28667;50.758;6.096;2022-08-11T18:31:41;2.97;;;1.92;;
43042;SDS011;28667;50.758;6.096;2022-08-11T18:34:31;2.08;;;1.90;;
43042;SDS011;28667;50.758;6.096;2022-08-11T18:37:24;2.60;;;1.85;;
43042;SDS011;28667;50.758;6.096;2022-08-11T18:40:15;1.88;;;1.77;;
43042;SDS011;28667;50.758;6.096;2022-08-11T18:43:03;2.15;;;1.95;;
43042;SDS011;28667;50.758;6.096;2022-08-11T18:45:51;3.28;;;1.70;;
43042;SDS011;28667;50.758;6.096;2022-08-11T18:48:39;2.13;;;1.75;;
43042;SDS011;28667;50.758;6.096;2022-08-11T18:51:31;2.35;;;1.60;;
43042;SDS011;28667;50.758;6.096;2022-08-11T18:54:19;2.50;;;2.05;;
43042;SDS011;28667;50.758;6.096;2022-08-11T18:57:05;1.52;;;1.42;;
43042;SDS011;28667;50.758;6.096;2022-08-11T18:59:51;1.90;;;1.70;;
43042;SDS011;28667;50.758;6.096;2022-08-11T19:02:38;2.03;;;1.90;;
43042;SDS011;28667;50.758;6.096;2022-08-11T19:05:26;2.45;;;2.00;;
43042;SDS011;28667;50.758;6.096;2022-08-11T19:08:15;1.80;;;1.70;;
43042;SDS011;28667;50.758;6.096;2022-08-11T19:11:02;3.55;;;1.60;;
43042;SDS011;28667;50.758;6.096;2022-08-11T19:13:48;2.55;;;1.77;;
43042;SDS011;28667;50.758;6.096;2022-08-11T19:16:35;3.35;;;1.67;;
43042;SDS011;28667;50.758;6.096;2022-08-11T19:19:21;2.63;;;1.75;;
43042;SDS011;28667;50.758;6.096;2022-08-11T19:22:11;1.88;;;1.70;;
43042;SDS011;28667;50.758;6.096;2022-08-11T19:24:55;2.10;;;1.90;;
43042;SDS011;28667;50.758;6.096;2022-08-11T19:27:41;2.47;;;1.85;;
43042;SDS011;28667;50.758;6.096;2022-08-11T19:30:30;2.28;;;2.08;;
43042;SDS011;28667;50.758;6.096;2022-08-11T19:33:15;1.80;;;1.70;;
43042;SDS011;28667;50.758;6.096;2022-08-11T19:36:01;5.50;;;2.13;;
43042;SDS011;28667;50.758;6.096;2022-08-11T19:38:46;5.00;;;2.17;;
43042;SDS011;28667;50.758;6.096;2022-08-11T19:41:34;2.72;;;2.33;;
43042;SDS011;28667;50.758;6.096;2022-08-11T19:44:22;2.95;;;1.90;;
43042;SDS011;28667;50.758;6.096;2022-08-11T19:47:06;3.13;;;2.20;;
43042;SDS011;28667;50.758;6.096;2022-08-11T19:49:52;2.58;;;1.63;;
43042;SDS011;28667;50.758;6.096;2022-08-11T19:52:38;5.25;;;2.05;;
43042;SDS011;28667;50.758;6.096;2022-08-11T19:55:25;2.28;;;1.90;;
43042;SDS011;28667;50.758;6.096;2022-08-11T19:58:11;1.85;;;1.75;;
43042;SDS011;28667;50.758;6.096;2022-08-11T20:00:57;3.55;;;2.08;;
43042;SDS011;28667;50.758;6.096;2022-08-11T20:03:43;3.78;;;2.50;;
43042;SDS011;28667;50.758;6.096;2022-08-11T20:06:28;2.80;;;2.53;;
43042;SDS011;28667;50.758;6.096;2022-08-11T20:09:14;2.33;;;2.13;;
43042;SDS011;28667;50.758;6.096;2022-08-11T20:12:00;2.90;;;2.60;;
43042;SDS011;28667;50.758;6.096;2022-08-11T20:14:47;2.47;;;2.17;;
43042;SDS011;28667;50.758;6.096;2022-08-11T20:17:34;4.60;;;1.90;;
43042;SDS011;28667;50.758;6.096;2022-08-11T20:20:24;2.22;;;2.03;;
43042;SDS011;28667;50.758;6.096;2022-08-11T20:23:11;2.40;;;2.20;;
43042;SDS011;28667;50.758;6.096;2022-08-11T20:25:59;3.95;;;2.70;;
43042;SDS011;28667;50.758;6.096;2022-08-11T20:28:49;3.45;;;2.30;;
43042;SDS011;28667;50.758;6.096;2022-08-11T20:31:37;2.00;;;1.90;;
43042;SDS011;28667;50.758;6.096;2022-08-11T20:34:23;1.90;;;1.80;;
43042;SDS011;28667;50.758;6.096;2022-08-11T20:37:08;1.98;;;1.88;;
43042;SDS011;28667;50.758;6.096;2022-08-11T20:39:55;2.13;;;1.92;;
43042;SDS011;28667;50.758;6.096;2022-08-11T20:42:40;2.67;;;2.00;;
43042;SDS011;28667;50.758;6.096;2022-08-11T20:45:26;3.17;;;2.13;;
43042;SDS011;28667;50.758;6.096;2022-08-11T20:48:12;3.20;;;2.22;;
43042;SDS011;28667;50.758;6.096;2022-08-11T20:50:58;1.80;;;1.70;;
43042;SDS011;28667;50.758;6.096;2022-08-11T20:53:45;1.90;;;1.80;;
43042;SDS011;28667;50.758;6.096;2022-08-11T20:56:31;3.33;;;2.13;;
43042;SDS011;28667;50.758;6.096;2022-08-11T20:59:19;2.20;;;2.00;;
43042;SDS011;28667;50.758;6.096;2022-08-11T21:02:06;2.35;;;2.15;;
43042;SDS011;28667;50.758;6.096;2022-08-11T21:04:53;5.60;;;3.00;;
43042;SDS011;28667;50.758;6.096;2022-08-11T21:10:27;2.67;;;2.03;;
43042;SDS011;28667;50.758;6.096;2022-08-11T21:13:15;2.22;;;1.88;;
43042;SDS011;28667;50.758;6.096;2022-08-11T21:16:02;4.15;;;2.17;;
43042;SDS011;28667;50.758;6.096;2022-08-11T21:18:49;2.58;;;2.28;;
43042;SDS011;28667;50.758;6.096;2022-08-11T21:21:36;2.50;;;2.15;;
43042;SDS011;28667;50.758;6.096;2022-08-11T21:24:25;2.75;;;2.20;;
43042;SDS011;28667;50.758;6.096;2022-08-11T21:27:14;4.97;;;2.30;;
43042;SDS011;28667;50.758;6.096;2022-08-11T21:30:01;2.72;;;1.90;;
43042;SDS011;28667;50.758;6.096;2022-08-11T21:32:46;6.20;;;2.28;;
43042;SDS011;28667;50.758;6.096;2022-08-11T21:35:32;2.97;;;2.50;;
43042;SDS011;28667;50.758;6.096;2022-08-11T21:38:18;2.20;;;2.00;;
43042;SDS011;28667;50.758;6.096;2022-08-11T21:43:48;2.47;;;2.28;;
43042;SDS011;28667;50.758;6.096;2022-08-11T21:46:35;2.70;;;2.50;;
43042;SDS011;28667;50.758;6.096;2022-08-11T21:49:24;2.10;;;2.00;;
43042;SDS011;28667;50.758;6.096;2022-08-11T21:52:10;2.38;;;2.17;;
43042;SDS011;28667;50.758;6.096;2022-08-11T21:54:55;2.70;;;2.50;;
43042;SDS011;28667;50.758;6.096;2022-08-11T21:57:44;4.22;;;2.70;;
43042;SDS011;28667;50.758;6.096;2022-08-11T22:00:30;2.08;;;1.98;;
43042;SDS011;28667;50.758;6.096;2022-08-11T22:06:24;5.43;;;2.00;;
43042;SDS011;28667;50.758;6.096;2022-08-11T22:09:38;2.38;;;2.00;;
43042;SDS011;28667;50.758;6.096;2022-08-11T22:12:47;3.25;;;2.58;;
43042;SDS011;28667;50.758;6.096;2022-08-11T22:15:44;2.55;;;2.33;;
43042;SDS011;28667;50.758;6.096;2022-08-11T22:18:47;3.50;;;2.10;;
43042;SDS011;28667;50.758;6.096;2022-08-11T22:22:04;2.50;;;2.30;;
43042;SDS011;28667;50.758;6.096;2022-08-11T22:25:29;5.00;;;2.50;;
43042;SDS011;28667;50.758;6.096;2022-08-11T22:32:25;4.20;;;2.33;;
43042;SDS011;28667;50.758;6.096;2022-08-11T22:35:25;2.40;;;2.20;;
43042;SDS011;28667;50.758;6.096;2022-08-11T22:38:51;2.70;;;2.50;;
43042;SDS011;28667;50.758;6.096;2022-08-11T22:42:07;3.35;;;2.30;;
43042;SDS011;28667;50.758;6.096;2022-08-11T22:48:33;4.38;;;2.58;;
43042;SDS011;28667;50.758;6.096;2022-08-11T22:51:20;2.85;;;2.33;;
43042;SDS011;28667;50.758;6.096;2022-08-11T22:54:07;3.70;;;2.95;;
43042;SDS011;28667;50.758;6.096;2022-08-11T22:56:52;2.13;;;1.92;;
43042;SDS011;28667;50.758;6.096;2022-08-11T22:59:38;5.63;;;2.30;;
43042;SDS011;28667;50.758;6.096;2022-08-11T23:02:25;2.33;;;2.15;;
43042;SDS011;28667;50.758;6.096;2022-08-11T23:05:11;2.65;;;2.45;;
43042;SDS011;28667;50.758;6.096;2022-08-11T23:07:59;2.58;;;2.38;;
43042;SDS011;28667;50.758;6.096;2022-08-11T23:10:45;3.53;;;2.38;;
43042;SDS011;28667;50.758;6.096;2022-08-11T23:13:31;4.13;;;2.58;;
43042;SDS011;28667;50.758;6.096;2022-08-11T23:16:17;3.90;;;2.38;;
43042;SDS011;28667;50.758;6.096;2022-08-11T23:19:03;2.55;;;2.35;;
43042;SDS011;28667;50.758;6.096;2022-08-11T23:21:48;2.50;;;2.30;;
43042;SDS011;28667;50.758;6.096;2022-08-11T23:24:34;2.53;;;2.08;;
43042;SDS011;28667;50.758;6.096;2022-08-11T23:27:19;3.20;;;2.22;;
43042;SDS011;28667;50.758;6.096;2022-08-11T23:30:06;2.47;;;2.28;;
43042;SDS011;28667;50.758;6.096;2022-08-11T23:32:51;2.53;;;2.22;;
43042;SDS011;28667;50.758;6.096;2022-08-11T23:35:41;2.47;;;2.25;;
43042;SDS011;28667;50.758;6.096;2022-08-11T23:38:28;2.78;;;2.58;;
43042;SDS011;28667;50.758;6.096;2022-08-11T23:41:13;3.20;;;2.20;;
43042;SDS011;28667;50.758;6.096;2022-08-11T23:44:02;2.60;;;2.40;;
43042;SDS011;28667;50.758;6.096;2022-08-11T23:46:49;3.95;;;2.35;;
43042;SDS011;28667;50.758;6.096;2022-08-11T23:49:37;2.72;;;2.35;;
43042;SDS011;28667;50.758;6.096;2022-08-11T23:52:23;2.70;;;2.50;;
43042;SDS011;28667;50.758;6.096;2022-08-11T23:55:10;2.85;;;2.53;;
43042;SDS011;28667;50.758;6.096;2022-08-11T23:57:55;2.67;;;2.47;;
